ACA343 CYOW-CYVR
Flight info
| Callsign | ACA343 |
|---|---|
| Flight time | N/A |
| Altitude | 34000 |
| Route | RADEN DCT UBTIX DCT 49N082W DCT 5087N DCT YRL DCT 5145N10600W/N0455F360 DCT SPRAE DCT BOOTH CANUC6 |
| Aircraft | A321/M-SDE3FGHIJ7M3P2RWY/LB1 |
Departure
| Time | 2026-05-04 18:39 |
|---|---|
| Airport | Ottawa Macdonald-Cartier International Airport (CYOW) |
Arrival
| Time | N/A |
|---|---|
| Airport | Vancouver International Airport (CYVR) |
| Time | Latitude | Longitude | Altitude | Speed | Heading |
|---|---|---|---|---|---|
| 2026-05-04 18:21 | 45.32149 | -75.66764 | 389 ft | 0 kts | 37° |
| 2026-05-04 18:23 | 45.32130 | -75.66784 | 389 ft | 4 kts | 36° |
| 2026-05-04 18:23 | 45.32109 | -75.66807 | 389 ft | 4 kts | 41° |
| 2026-05-04 18:23 | 45.32092 | -75.66835 | 389 ft | 4 kts | 68° |
| 2026-05-04 18:23 | 45.32089 | -75.66869 | 390 ft | 4 kts | 114° |
| 2026-05-04 18:24 | 45.32095 | -75.66884 | 390 ft | 1 kts | 126° |
| 2026-05-04 18:24 | 45.32095 | -75.66885 | 390 ft | 0 kts | 126° |
| 2026-05-04 18:30 | 45.32088 | -75.66872 | 390 ft | 2 kts | 126° |
| 2026-05-04 18:30 | 45.32083 | -75.66861 | 390 ft | 2 kts | 126° |
| 2026-05-04 18:31 | 45.32061 | -75.66819 | 390 ft | 7 kts | 126° |
| 2026-05-04 18:31 | 45.32035 | -75.66767 | 389 ft | 6 kts | 126° |
| 2026-05-04 18:31 | 45.32027 | -75.66752 | 389 ft | 6 kts | 126° |
| 2026-05-04 18:31 | 45.32019 | -75.66737 | 389 ft | 5 kts | 127° |
| 2026-05-04 18:32 | 45.32004 | -75.66708 | 390 ft | 3 kts | 128° |
| 2026-05-04 18:32 | 45.31988 | -75.66679 | 390 ft | 5 kts | 127° |
| 2026-05-04 18:32 | 45.31963 | -75.66630 | 390 ft | 8 kts | 125° |
| 2026-05-04 18:32 | 45.31941 | -75.66588 | 390 ft | 8 kts | 126° |
| 2026-05-04 18:33 | 45.31907 | -75.66524 | 388 ft | 8 kts | 127° |
| 2026-05-04 18:33 | 45.31879 | -75.66465 | 387 ft | 7 kts | 114° |
| 2026-05-04 18:33 | 45.31883 | -75.66405 | 387 ft | 6 kts | 63° |
| 2026-05-04 18:33 | 45.31918 | -75.66328 | 387 ft | 11 kts | 57° |
| 2026-05-04 18:34 | 45.31955 | -75.66244 | 386 ft | 10 kts | 57° |
| 2026-05-04 18:34 | 45.31993 | -75.66160 | 384 ft | 10 kts | 58° |
| 2026-05-04 18:34 | 45.32030 | -75.66075 | 384 ft | 9 kts | 57° |
| 2026-05-04 18:34 | 45.32062 | -75.66005 | 384 ft | 9 kts | 57° |
| 2026-05-04 18:35 | 45.32105 | -75.65910 | 384 ft | 14 kts | 57° |
| 2026-05-04 18:35 | 45.32168 | -75.65772 | 384 ft | 19 kts | 57° |
| 2026-05-04 18:35 | 45.32242 | -75.65605 | 385 ft | 20 kts | 57° |
| 2026-05-04 18:35 | 45.32314 | -75.65443 | 385 ft | 18 kts | 58° |
| 2026-05-04 18:36 | 45.32379 | -75.65300 | 384 ft | 17 kts | 56° |
| 2026-05-04 18:36 | 45.32443 | -75.65161 | 382 ft | 16 kts | 57° |
| 2026-05-04 18:36 | 45.32502 | -75.65030 | 380 ft | 16 kts | 58° |
| 2026-05-04 18:36 | 45.32562 | -75.64897 | 378 ft | 16 kts | 58° |
| 2026-05-04 18:37 | 45.32592 | -75.64804 | 378 ft | 7 kts | 84° |
| 2026-05-04 18:37 | 45.32584 | -75.64719 | 379 ft | 9 kts | 102° |
| 2026-05-04 18:37 | 45.32571 | -75.64636 | 379 ft | 8 kts | 104° |
| 2026-05-04 18:37 | 45.32544 | -75.64575 | 378 ft | 7 kts | 139° |
| 2026-05-04 18:38 | 45.32513 | -75.64548 | 379 ft | 4 kts | 149° |
| 2026-05-04 18:38 | 45.32493 | -75.64545 | 380 ft | 4 kts | 196° |
| 2026-05-04 18:38 | 45.32477 | -75.64576 | 380 ft | 5 kts | 238° |
| 2026-05-04 18:38 | 45.32409 | -75.64731 | 378 ft | 48 kts | 237° |
| 2026-05-04 18:39 | 45.32100 | -75.65406 | 384 ft | 113 kts | 237° |
| 2026-05-04 18:39 | 45.31570 | -75.66567 | 403 ft | 163 kts | 234° |
| 2026-05-04 18:39 | 45.30978 | -75.67944 | 1026 ft | 163 kts | 239° |
| 2026-05-04 18:39 | 45.30397 | -75.69316 | 1769 ft | 160 kts | 237° |
| 2026-05-04 18:40 | 45.29782 | -75.70728 | 1984 ft | 178 kts | 237° |
| 2026-05-04 18:40 | 45.29095 | -75.72319 | 2128 ft | 198 kts | 238° |
| 2026-05-04 18:40 | 45.28345 | -75.74061 | 2273 ft | 217 kts | 237° |
| 2026-05-04 18:40 | 45.27531 | -75.75953 | 2692 ft | 227 kts | 238° |
| 2026-05-04 18:41 | 45.26733 | -75.77845 | 3400 ft | 227 kts | 243° |
| 2026-05-04 18:41 | 45.26389 | -75.80015 | 4073 ft | 231 kts | 273° |
| 2026-05-04 18:41 | 45.26940 | -75.82169 | 4812 ft | 239 kts | 303° |
| 2026-05-04 18:41 | 45.28237 | -75.83701 | 5575 ft | 250 kts | 329° |
| 2026-05-04 18:42 | 45.29958 | -75.84405 | 6132 ft | 267 kts | 342° |
| 2026-05-04 18:42 | 45.31805 | -75.84948 | 6656 ft | 274 kts | 342° |
| 2026-05-04 18:42 | 45.33693 | -75.85473 | 7342 ft | 276 kts | 342° |
| 2026-05-04 18:42 | 45.35582 | -75.85992 | 8072 ft | 277 kts | 342° |
| 2026-05-04 18:43 | 45.37470 | -75.86521 | 8792 ft | 277 kts | 341° |
| 2026-05-04 18:43 | 45.39366 | -75.87056 | 9521 ft | 278 kts | 341° |
| 2026-05-04 18:43 | 45.41247 | -75.87587 | 10136 ft | 279 kts | 341° |
| 2026-05-04 18:43 | 45.43204 | -75.88152 | 10367 ft | 297 kts | 341° |
| 2026-05-04 18:44 | 45.45299 | -75.88767 | 10493 ft | 317 kts | 342° |
| 2026-05-04 18:44 | 45.46784 | -75.89205 | 10580 ft | 330 kts | 342° |
| 2026-05-04 18:44 | 45.49843 | -75.90095 | 11078 ft | 344 kts | 343° |
| 2026-05-04 18:44 | 45.52201 | -75.90761 | 11680 ft | 347 kts | 343° |
| 2026-05-04 18:45 | 45.54583 | -75.91436 | 12261 ft | 350 kts | 343° |
| 2026-05-04 18:45 | 45.56976 | -75.92120 | 12850 ft | 353 kts | 343° |
| 2026-05-04 18:45 | 45.59397 | -75.92817 | 13444 ft | 356 kts | 343° |
| 2026-05-04 18:45 | 45.61832 | -75.93519 | 13965 ft | 358 kts | 343° |
| 2026-05-04 18:46 | 45.64283 | -75.94228 | 14487 ft | 361 kts | 343° |
| 2026-05-04 18:46 | 45.66754 | -75.94943 | 15000 ft | 363 kts | 343° |
| 2026-05-04 18:46 | 45.69242 | -75.95664 | 15548 ft | 365 kts | 343° |
| 2026-05-04 18:46 | 45.71732 | -75.96388 | 16093 ft | 367 kts | 343° |
| 2026-05-04 18:47 | 45.74239 | -75.97115 | 16635 ft | 368 kts | 343° |
| 2026-05-04 18:47 | 45.76760 | -75.97849 | 17143 ft | 371 kts | 343° |
| 2026-05-04 18:47 | 45.79297 | -75.98585 | 17625 ft | 373 kts | 343° |
| 2026-05-04 18:47 | 45.81852 | -75.99328 | 18113 ft | 375 kts | 343° |
| 2026-05-04 18:48 | 45.84416 | -76.00075 | 18546 ft | 377 kts | 343° |
| 2026-05-04 18:48 | 45.86991 | -76.00824 | 18957 ft | 379 kts | 343° |
| 2026-05-04 18:48 | 45.89576 | -76.01601 | 19372 ft | 379 kts | 340° |
| 2026-05-04 18:48 | 45.92036 | -76.02889 | 19789 ft | 374 kts | 329° |
| 2026-05-04 18:49 | 45.94227 | -76.04845 | 20196 ft | 371 kts | 318° |
| 2026-05-04 18:49 | 45.96105 | -76.07382 | 20544 ft | 371 kts | 308° |
| 2026-05-04 18:49 | 45.97794 | -76.10191 | 20926 ft | 373 kts | 308° |
| 2026-05-04 18:49 | 45.99505 | -76.13010 | 21318 ft | 375 kts | 309° |
| 2026-05-04 18:50 | 46.01234 | -76.15843 | 21718 ft | 377 kts | 309° |
| 2026-05-04 18:50 | 46.02972 | -76.18686 | 22102 ft | 379 kts | 309° |
| 2026-05-04 18:50 | 46.04714 | -76.21547 | 22489 ft | 381 kts | 309° |
| 2026-05-04 18:50 | 46.06467 | -76.24436 | 22868 ft | 384 kts | 309° |
| 2026-05-04 18:51 | 46.08225 | -76.27337 | 23253 ft | 386 kts | 309° |
| 2026-05-04 18:51 | 46.09989 | -76.30253 | 23570 ft | 387 kts | 309° |
| 2026-05-04 18:51 | 46.11763 | -76.33188 | 23909 ft | 388 kts | 309° |
| 2026-05-04 18:51 | 46.13538 | -76.36125 | 24244 ft | 389 kts | 309° |
| 2026-05-04 18:52 | 46.15315 | -76.39075 | 24553 ft | 391 kts | 308° |
| 2026-05-04 18:52 | 46.17099 | -76.42042 | 24893 ft | 392 kts | 309° |
| 2026-05-04 18:52 | 46.18885 | -76.45015 | 25234 ft | 392 kts | 309° |
| 2026-05-04 18:52 | 46.20671 | -76.47988 | 25568 ft | 393 kts | 309° |
| 2026-05-04 18:53 | 46.22463 | -76.50973 | 25893 ft | 394 kts | 309° |
| 2026-05-04 18:53 | 46.24261 | -76.53970 | 26238 ft | 394 kts | 309° |
| 2026-05-04 18:53 | 46.26035 | -76.56933 | 26534 ft | 395 kts | 308° |
| 2026-05-04 18:53 | 46.27834 | -76.59942 | 26841 ft | 396 kts | 309° |
| 2026-05-04 18:54 | 46.29637 | -76.62959 | 27134 ft | 397 kts | 309° |
| 2026-05-04 18:54 | 46.31437 | -76.65976 | 27442 ft | 398 kts | 308° |
| 2026-05-04 18:54 | 46.33250 | -76.69015 | 27688 ft | 399 kts | 308° |
| 2026-05-04 18:54 | 46.35066 | -76.72062 | 27913 ft | 401 kts | 308° |
| 2026-05-04 18:55 | 46.36890 | -76.75121 | 28165 ft | 402 kts | 308° |
| 2026-05-04 18:55 | 46.40557 | -76.81288 | 28726 ft | 404 kts | 308° |
| 2026-05-04 18:55 | 46.42397 | -76.84391 | 29059 ft | 405 kts | 308° |
| 2026-05-04 18:56 | 46.44203 | -76.87434 | 29473 ft | 402 kts | 308° |
| 2026-05-04 18:56 | 46.46042 | -76.90538 | 29876 ft | 400 kts | 308° |
| 2026-05-04 18:56 | 46.47850 | -76.93593 | 30222 ft | 398 kts | 308° |
| 2026-05-04 18:56 | 46.49646 | -76.96633 | 30559 ft | 396 kts | 308° |
| 2026-05-04 18:57 | 46.51430 | -76.99659 | 30895 ft | 394 kts | 308° |
| 2026-05-04 18:57 | 46.53184 | -77.02635 | 31185 ft | 392 kts | 308° |
| 2026-05-04 18:57 | 46.54955 | -77.05652 | 31497 ft | 391 kts | 308° |
| 2026-05-04 18:57 | 46.56710 | -77.08645 | 31836 ft | 389 kts | 308° |
| 2026-05-04 18:58 | 46.58436 | -77.11657 | 32163 ft | 386 kts | 303° |
| 2026-05-04 18:58 | 46.59619 | -77.15117 | 32479 ft | 382 kts | 286° |
| 2026-05-04 18:58 | 46.60225 | -77.18867 | 32769 ft | 381 kts | 288° |
| 2026-05-04 18:58 | 46.61358 | -77.22310 | 33045 ft | 379 kts | 306° |
| 2026-05-04 18:59 | 46.63246 | -77.24988 | 33315 ft | 383 kts | 320° |
| 2026-05-04 18:59 | 46.65422 | -77.27230 | 33564 ft | 384 kts | 320° |
| 2026-05-04 18:59 | 46.69762 | -77.31689 | 33639 ft | 380 kts | 320° |
| 2026-05-04 19:00 | 46.73559 | -77.36912 | 33641 ft | 374 kts | 308° |
| 2026-05-04 19:00 | 46.76843 | -77.42765 | 33637 ft | 373 kts | 306° |
| 2026-05-04 19:01 | 46.80050 | -77.48717 | 33631 ft | 373 kts | 301° |
| 2026-05-04 19:01 | 46.82663 | -77.55242 | 33624 ft | 376 kts | 312° |
| 2026-05-04 19:02 | 46.86472 | -77.60442 | 33637 ft | 377 kts | 313° |
| 2026-05-04 19:02 | 46.90113 | -77.65925 | 33631 ft | 375 kts | 308° |
| 2026-05-04 19:03 | 46.93480 | -77.71724 | 33655 ft | 373 kts | 307° |
| 2026-05-04 19:03 | 46.96768 | -77.77601 | 33648 ft | 373 kts | 307° |
| 2026-05-04 19:04 | 47.00066 | -77.83459 | 33631 ft | 372 kts | 306° |
| 2026-05-04 19:04 | 47.03247 | -77.89437 | 33606 ft | 372 kts | 304° |
| 2026-05-04 19:05 | 47.06333 | -77.95504 | 33608 ft | 371 kts | 304° |
| 2026-05-04 19:05 | 47.09417 | -78.01586 | 33596 ft | 372 kts | 303° |
| 2026-05-04 19:06 | 47.12528 | -78.07665 | 33581 ft | 372 kts | 304° |
| 2026-05-04 19:06 | 47.15650 | -78.13732 | 33582 ft | 372 kts | 304° |
| 2026-05-04 19:07 | 47.18763 | -78.19812 | 33601 ft | 372 kts | 303° |
| 2026-05-04 19:07 | 47.21873 | -78.25912 | 33613 ft | 373 kts | 303° |
| 2026-05-04 19:08 | 47.24962 | -78.31985 | 33611 ft | 373 kts | 303° |
| 2026-05-04 19:08 | 47.28063 | -78.38096 | 33596 ft | 373 kts | 303° |
| 2026-05-04 19:09 | 47.31164 | -78.44211 | 33592 ft | 373 kts | 303° |
| 2026-05-04 19:09 | 47.34264 | -78.50339 | 33577 ft | 372 kts | 303° |
| 2026-05-04 19:10 | 47.37354 | -78.56466 | 33587 ft | 372 kts | 303° |
| 2026-05-04 19:10 | 47.40445 | -78.62609 | 33571 ft | 372 kts | 303° |
| 2026-05-04 19:11 | 47.43534 | -78.68751 | 33565 ft | 373 kts | 303° |
| 2026-05-04 19:11 | 47.46622 | -78.74906 | 33591 ft | 373 kts | 302° |
| 2026-05-04 19:12 | 47.51246 | -78.84173 | 33570 ft | 373 kts | 302° |
| 2026-05-04 19:13 | 47.54321 | -78.90355 | 33561 ft | 373 kts | 302° |
| 2026-05-04 19:13 | 47.57388 | -78.96514 | 33557 ft | 373 kts | 301° |
| 2026-05-04 19:14 | 47.60464 | -79.02719 | 33558 ft | 373 kts | 301° |
| 2026-05-04 19:14 | 47.63537 | -79.08922 | 33541 ft | 374 kts | 301° |
| 2026-05-04 19:15 | 47.66611 | -79.15149 | 33539 ft | 374 kts | 301° |
| 2026-05-04 19:15 | 47.69682 | -79.21376 | 33535 ft | 374 kts | 301° |
| 2026-05-04 19:16 | 47.72754 | -79.27617 | 33558 ft | 374 kts | 301° |
| 2026-05-04 19:16 | 47.75821 | -79.33864 | 33539 ft | 374 kts | 301° |
| 2026-05-04 19:17 | 47.78885 | -79.40129 | 33529 ft | 375 kts | 301° |
| 2026-05-04 19:17 | 47.81928 | -79.46367 | 33531 ft | 375 kts | 300° |
| 2026-05-04 19:18 | 47.84991 | -79.52662 | 33511 ft | 375 kts | 300° |
| 2026-05-04 19:18 | 47.88051 | -79.58970 | 33510 ft | 376 kts | 300° |
| 2026-05-04 19:19 | 47.91112 | -79.65283 | 33491 ft | 376 kts | 300° |
| 2026-05-04 19:19 | 47.94175 | -79.71608 | 33485 ft | 376 kts | 300° |
| 2026-05-04 19:20 | 47.97237 | -79.77952 | 33477 ft | 376 kts | 299° |
| 2026-05-04 19:20 | 48.00290 | -79.84302 | 33483 ft | 377 kts | 299° |
| 2026-05-04 19:21 | 48.02254 | -79.88382 | 33476 ft | 378 kts | 299° |
| 2026-05-04 19:22 | 48.05028 | -79.94160 | 33447 ft | 378 kts | 299° |
| 2026-05-04 19:22 | 48.08091 | -80.00561 | 33443 ft | 379 kts | 299° |
| 2026-05-04 19:23 | 48.11157 | -80.06989 | 33435 ft | 379 kts | 299° |
| 2026-05-04 19:23 | 48.14223 | -80.13429 | 33434 ft | 380 kts | 299° |
| 2026-05-04 19:24 | 48.17269 | -80.19830 | 33440 ft | 380 kts | 298° |
| 2026-05-04 19:24 | 48.20335 | -80.26296 | 33420 ft | 381 kts | 298° |
| 2026-05-04 19:25 | 48.23405 | -80.32782 | 33418 ft | 381 kts | 298° |
| 2026-05-04 19:25 | 48.26469 | -80.39269 | 33417 ft | 382 kts | 298° |
| 2026-05-04 19:26 | 48.29533 | -80.45786 | 33406 ft | 382 kts | 298° |
| 2026-05-04 19:26 | 48.31995 | -80.51033 | 33405 ft | 382 kts | 298° |
| 2026-05-04 19:27 | 48.34988 | -80.57426 | 33415 ft | 384 kts | 297° |
| 2026-05-04 19:27 | 48.38045 | -80.63976 | 33396 ft | 385 kts | 297° |
| 2026-05-04 19:28 | 48.41137 | -80.70587 | 33392 ft | 386 kts | 297° |
| 2026-05-04 19:28 | 48.44225 | -80.77222 | 33391 ft | 386 kts | 297° |
| 2026-05-04 19:29 | 48.47310 | -80.83865 | 33385 ft | 387 kts | 297° |
| 2026-05-04 19:29 | 48.50381 | -80.90490 | 33387 ft | 387 kts | 297° |
| 2026-05-04 19:30 | 48.53463 | -80.97165 | 33378 ft | 387 kts | 297° |
| 2026-05-04 19:30 | 48.56542 | -81.03857 | 33370 ft | 388 kts | 297° |
| 2026-05-04 19:31 | 48.59617 | -81.10547 | 33367 ft | 388 kts | 297° |
| 2026-05-04 19:31 | 48.62670 | -81.17212 | 33361 ft | 388 kts | 297° |
| 2026-05-04 19:32 | 48.65743 | -81.23924 | 33360 ft | 388 kts | 297° |
| 2026-05-04 19:32 | 48.68818 | -81.30650 | 33376 ft | 389 kts | 296° |
| 2026-05-04 19:33 | 48.71880 | -81.37384 | 33372 ft | 390 kts | 296° |
| 2026-05-04 19:33 | 48.74954 | -81.44165 | 33375 ft | 391 kts | 296° |
| 2026-05-04 19:34 | 48.78042 | -81.50980 | 33375 ft | 392 kts | 296° |
| 2026-05-04 19:34 | 48.81131 | -81.57820 | 33384 ft | 393 kts | 297° |
| 2026-05-04 19:35 | 48.84228 | -81.64676 | 33372 ft | 394 kts | 297° |
| 2026-05-04 19:35 | 48.87303 | -81.71514 | 33385 ft | 395 kts | 296° |
| 2026-05-04 19:36 | 48.90399 | -81.78433 | 33356 ft | 397 kts | 296° |
| 2026-05-04 19:36 | 48.93508 | -81.85397 | 33356 ft | 398 kts | 296° |
| 2026-05-04 19:37 | 48.96620 | -81.92380 | 33355 ft | 399 kts | 296° |
| 2026-05-04 19:37 | 48.99660 | -81.99435 | 33348 ft | 394 kts | 290° |
| 2026-05-04 19:38 | 49.01608 | -82.07112 | 33373 ft | 387 kts | 283° |
| 2026-05-04 19:38 | 49.03355 | -82.14888 | 33341 ft | 389 kts | 283° |
| 2026-05-04 19:39 | 49.05111 | -82.22710 | 33333 ft | 391 kts | 283° |
| 2026-05-04 19:39 | 49.06861 | -82.30533 | 33323 ft | 393 kts | 283° |
| 2026-05-04 19:40 | 49.08625 | -82.38455 | 33327 ft | 394 kts | 283° |
| 2026-05-04 19:40 | 49.10379 | -82.46386 | 33304 ft | 394 kts | 283° |
| 2026-05-04 19:41 | 49.12134 | -82.54332 | 33316 ft | 396 kts | 283° |
| 2026-05-04 19:41 | 49.13889 | -82.62308 | 33307 ft | 398 kts | 283° |
| 2026-05-04 19:42 | 49.15631 | -82.70280 | 33305 ft | 398 kts | 283° |
| 2026-05-04 19:42 | 49.17379 | -82.78332 | 33301 ft | 399 kts | 283° |
| 2026-05-04 19:43 | 49.19132 | -82.86391 | 33298 ft | 399 kts | 283° |
| 2026-05-04 19:43 | 49.20882 | -82.94448 | 33306 ft | 399 kts | 283° |
| 2026-05-04 19:44 | 49.22626 | -83.02542 | 33291 ft | 401 kts | 283° |
| 2026-05-04 19:44 | 49.24367 | -83.10652 | 33284 ft | 401 kts | 283° |
| 2026-05-04 19:45 | 49.26087 | -83.18728 | 33285 ft | 402 kts | 283° |
| 2026-05-04 19:45 | 49.27832 | -83.26924 | 33285 ft | 402 kts | 283° |
| 2026-05-04 19:46 | 49.29551 | -83.35033 | 33302 ft | 403 kts | 284° |
| 2026-05-04 19:46 | 49.31282 | -83.43209 | 33281 ft | 403 kts | 284° |
| 2026-05-04 19:47 | 49.33013 | -83.51433 | 33285 ft | 405 kts | 283° |
| 2026-05-04 19:47 | 49.34735 | -83.59664 | 33287 ft | 405 kts | 283° |
| 2026-05-04 19:48 | 49.36466 | -83.67900 | 33282 ft | 406 kts | 283° |
| 2026-05-04 19:48 | 49.38174 | -83.76149 | 33289 ft | 406 kts | 283° |
| 2026-05-04 19:49 | 49.39877 | -83.84415 | 33271 ft | 407 kts | 283° |
| 2026-05-04 19:49 | 49.41594 | -83.92710 | 33266 ft | 408 kts | 283° |
| 2026-05-04 19:50 | 49.43307 | -84.01018 | 33266 ft | 408 kts | 283° |
| 2026-05-04 19:50 | 49.44998 | -84.09294 | 33266 ft | 408 kts | 283° |
| 2026-05-04 19:51 | 49.46691 | -84.17633 | 33259 ft | 408 kts | 283° |
| 2026-05-04 19:51 | 49.48385 | -84.25969 | 33269 ft | 409 kts | 284° |
| 2026-05-04 19:52 | 49.50075 | -84.34336 | 33260 ft | 410 kts | 284° |
| 2026-05-04 19:52 | 49.51761 | -84.42732 | 33261 ft | 411 kts | 284° |
| 2026-05-04 19:53 | 49.53443 | -84.51137 | 33265 ft | 411 kts | 283° |
| 2026-05-04 19:53 | 49.55120 | -84.59549 | 33265 ft | 411 kts | 283° |
| 2026-05-04 19:54 | 49.56786 | -84.67970 | 33270 ft | 411 kts | 283° |
| 2026-05-04 19:54 | 49.58442 | -84.76359 | 33259 ft | 411 kts | 283° |
| 2026-05-04 19:55 | 49.60109 | -84.84818 | 33257 ft | 412 kts | 283° |
| 2026-05-04 19:55 | 49.61764 | -84.93273 | 33259 ft | 412 kts | 283° |
| 2026-05-04 19:56 | 49.63416 | -85.01740 | 33252 ft | 412 kts | 283° |
| 2026-05-04 19:56 | 49.65044 | -85.10157 | 33266 ft | 412 kts | 283° |
| 2026-05-04 19:57 | 49.66688 | -85.18639 | 33251 ft | 412 kts | 283° |
| 2026-05-04 19:57 | 49.68324 | -85.27124 | 33253 ft | 413 kts | 283° |
| 2026-05-04 19:58 | 49.69956 | -85.35624 | 33240 ft | 412 kts | 283° |
| 2026-05-04 19:58 | 49.71574 | -85.44126 | 33237 ft | 412 kts | 283° |
| 2026-05-04 19:59 | 49.73192 | -85.52644 | 33247 ft | 413 kts | 283° |
| 2026-05-04 19:59 | 49.74798 | -85.61132 | 33237 ft | 414 kts | 283° |
| 2026-05-04 20:00 | 49.76409 | -85.69723 | 33239 ft | 415 kts | 283° |
| 2026-05-04 20:00 | 49.78012 | -85.78323 | 33241 ft | 416 kts | 283° |
| 2026-05-04 20:01 | 49.79612 | -85.86884 | 33246 ft | 416 kts | 283° |
| 2026-05-04 20:01 | 49.81213 | -85.95495 | 33246 ft | 416 kts | 283° |
| 2026-05-04 20:02 | 49.82806 | -86.04124 | 33247 ft | 417 kts | 283° |
| 2026-05-04 20:02 | 49.84398 | -86.12780 | 33247 ft | 418 kts | 283° |
| 2026-05-04 20:03 | 49.85982 | -86.21444 | 33249 ft | 418 kts | 283° |
| 2026-05-04 20:03 | 49.87565 | -86.30123 | 33250 ft | 418 kts | 283° |
| 2026-05-04 20:04 | 49.89127 | -86.38732 | 33258 ft | 418 kts | 283° |
| 2026-05-04 20:04 | 49.90689 | -86.47424 | 33246 ft | 418 kts | 283° |
| 2026-05-04 20:05 | 49.92249 | -86.56140 | 33253 ft | 418 kts | 283° |
| 2026-05-04 20:05 | 49.93815 | -86.64864 | 33242 ft | 420 kts | 283° |
| 2026-05-04 20:06 | 49.95361 | -86.73561 | 33246 ft | 420 kts | 283° |
| 2026-05-04 20:06 | 49.96908 | -86.82333 | 33249 ft | 421 kts | 283° |
| 2026-05-04 20:07 | 49.98455 | -86.91130 | 33248 ft | 421 kts | 283° |
| 2026-05-04 20:07 | 49.99989 | -86.99864 | 33249 ft | 422 kts | 283° |
| 2026-05-04 20:08 | 50.01614 | -87.08647 | 33252 ft | 423 kts | 284° |
| 2026-05-04 20:08 | 50.03022 | -87.15938 | 33246 ft | 423 kts | 284° |
| 2026-05-04 20:09 | 50.04713 | -87.24723 | 33240 ft | 423 kts | 284° |
| 2026-05-04 20:09 | 50.06380 | -87.33504 | 33265 ft | 423 kts | 284° |
| 2026-05-04 20:10 | 50.08017 | -87.42250 | 33258 ft | 423 kts | 284° |
| 2026-05-04 20:10 | 50.09656 | -87.51049 | 33272 ft | 423 kts | 284° |
| 2026-05-04 20:11 | 50.11290 | -87.59861 | 33263 ft | 423 kts | 284° |
| 2026-05-04 20:11 | 50.12920 | -87.68676 | 33252 ft | 423 kts | 284° |
| 2026-05-04 20:12 | 50.14552 | -87.77487 | 33275 ft | 422 kts | 284° |
| 2026-05-04 20:12 | 50.16174 | -87.86281 | 33264 ft | 422 kts | 284° |
| 2026-05-04 20:13 | 50.17764 | -87.95012 | 33291 ft | 421 kts | 284° |
| 2026-05-04 20:13 | 50.19353 | -88.03800 | 33258 ft | 421 kts | 284° |
| 2026-05-04 20:14 | 50.20944 | -88.12604 | 33255 ft | 421 kts | 284° |
| 2026-05-04 20:14 | 50.22526 | -88.21421 | 33266 ft | 421 kts | 284° |
| 2026-05-04 20:15 | 50.24092 | -88.30183 | 33245 ft | 421 kts | 283° |
| 2026-05-04 20:15 | 50.25664 | -88.39009 | 33253 ft | 421 kts | 283° |
| 2026-05-04 20:16 | 50.27230 | -88.47844 | 33258 ft | 421 kts | 283° |
| 2026-05-04 20:16 | 50.28786 | -88.56667 | 33261 ft | 421 kts | 283° |
| 2026-05-04 20:17 | 50.30320 | -88.65437 | 33269 ft | 421 kts | 283° |
| 2026-05-04 20:17 | 50.31862 | -88.74269 | 33269 ft | 421 kts | 283° |
| 2026-05-04 20:18 | 50.33400 | -88.83104 | 33265 ft | 421 kts | 283° |
| 2026-05-04 20:18 | 50.34940 | -88.91949 | 33270 ft | 420 kts | 283° |
| 2026-05-04 20:19 | 50.36456 | -89.00784 | 33263 ft | 420 kts | 283° |
| 2026-05-04 20:19 | 50.37966 | -89.09646 | 33275 ft | 421 kts | 283° |
| 2026-05-04 20:20 | 50.39468 | -89.18500 | 33274 ft | 421 kts | 283° |
| 2026-05-04 20:20 | 50.40974 | -89.27332 | 33281 ft | 421 kts | 283° |
| 2026-05-04 20:21 | 50.42479 | -89.36232 | 33287 ft | 422 kts | 283° |
| 2026-05-04 20:21 | 50.44717 | -89.49613 | 33283 ft | 423 kts | 283° |
| 2026-05-04 20:22 | 50.46192 | -89.58487 | 33284 ft | 423 kts | 283° |
| 2026-05-04 20:22 | 50.47675 | -89.67437 | 33293 ft | 424 kts | 283° |
| 2026-05-04 20:23 | 50.49146 | -89.76400 | 33295 ft | 424 kts | 282° |
| 2026-05-04 20:23 | 50.50517 | -89.85408 | 33294 ft | 422 kts | 274° |
| 2026-05-04 20:24 | 50.51302 | -89.94543 | 33292 ft | 423 kts | 282° |
| 2026-05-04 20:24 | 50.52952 | -90.03397 | 33311 ft | 425 kts | 285° |
| 2026-05-04 20:25 | 50.54685 | -90.12283 | 33309 ft | 425 kts | 284° |
| 2026-05-04 20:25 | 50.56205 | -90.21275 | 33326 ft | 424 kts | 282° |
| 2026-05-04 20:26 | 50.57605 | -90.30297 | 33328 ft | 424 kts | 282° |
| 2026-05-04 20:26 | 50.58994 | -90.39278 | 33345 ft | 424 kts | 282° |
| 2026-05-04 20:27 | 50.60423 | -90.48321 | 33350 ft | 425 kts | 282° |
| 2026-05-04 20:27 | 50.61845 | -90.57285 | 33362 ft | 425 kts | 282° |
| 2026-05-04 20:28 | 50.63269 | -90.66338 | 33365 ft | 425 kts | 282° |
| 2026-05-04 20:28 | 50.64683 | -90.75420 | 33395 ft | 425 kts | 282° |
| 2026-05-04 20:29 | 50.66087 | -90.84487 | 33376 ft | 427 kts | 282° |
| 2026-05-04 20:29 | 50.67480 | -90.93538 | 33392 ft | 428 kts | 282° |
| 2026-05-04 20:30 | 50.68888 | -91.02670 | 33396 ft | 428 kts | 282° |
| 2026-05-04 20:30 | 50.70285 | -91.11819 | 33396 ft | 428 kts | 282° |
| 2026-05-04 20:31 | 50.71662 | -91.20959 | 33420 ft | 429 kts | 282° |
| 2026-05-04 20:31 | 50.73029 | -91.30069 | 33428 ft | 429 kts | 282° |
| 2026-05-04 20:32 | 50.74408 | -91.39250 | 33433 ft | 429 kts | 282° |
| 2026-05-04 20:32 | 50.75783 | -91.48434 | 33437 ft | 429 kts | 282° |
| 2026-05-04 20:33 | 50.77139 | -91.57603 | 33460 ft | 428 kts | 282° |
| 2026-05-04 20:33 | 50.78487 | -91.66782 | 33460 ft | 428 kts | 282° |
| 2026-05-04 20:34 | 50.79829 | -91.75960 | 33458 ft | 429 kts | 282° |
| 2026-05-04 20:34 | 50.81166 | -91.85142 | 33461 ft | 428 kts | 282° |
| 2026-05-04 20:35 | 50.82493 | -91.94280 | 33472 ft | 429 kts | 282° |
| 2026-05-04 20:35 | 50.83814 | -92.03487 | 33474 ft | 429 kts | 282° |
| 2026-05-04 20:36 | 50.85130 | -92.12707 | 33487 ft | 429 kts | 282° |
| 2026-05-04 20:36 | 50.86429 | -92.21863 | 33494 ft | 429 kts | 282° |
| 2026-05-04 20:37 | 50.87729 | -92.31115 | 33506 ft | 429 kts | 282° |
| 2026-05-04 20:37 | 50.89028 | -92.40359 | 33505 ft | 430 kts | 282° |
| 2026-05-04 20:38 | 50.90328 | -92.49611 | 33513 ft | 430 kts | 282° |
| 2026-05-04 20:38 | 50.91611 | -92.58866 | 33518 ft | 430 kts | 282° |
| 2026-05-04 20:39 | 50.92873 | -92.68080 | 33513 ft | 430 kts | 281° |
| 2026-05-04 20:39 | 50.94142 | -92.77363 | 33511 ft | 430 kts | 281° |
| 2026-05-04 20:40 | 50.95405 | -92.86648 | 33529 ft | 430 kts | 282° |
| 2026-05-04 20:40 | 50.96649 | -92.95875 | 33539 ft | 429 kts | 282° |
| 2026-05-04 20:41 | 50.97894 | -93.05155 | 33563 ft | 429 kts | 281° |
| 2026-05-04 20:41 | 50.99130 | -93.14418 | 33550 ft | 428 kts | 281° |
| 2026-05-04 20:42 | 51.00351 | -93.23619 | 33567 ft | 428 kts | 281° |
| 2026-05-04 20:42 | 51.01564 | -93.32903 | 33553 ft | 429 kts | 281° |
| 2026-05-04 20:43 | 51.02778 | -93.42192 | 33572 ft | 430 kts | 282° |
| 2026-05-04 20:43 | 51.03987 | -93.51486 | 33575 ft | 429 kts | 282° |
| 2026-05-04 20:44 | 51.05191 | -93.60786 | 33600 ft | 429 kts | 281° |
| 2026-05-04 20:44 | 51.06385 | -93.70071 | 33600 ft | 428 kts | 281° |
| 2026-05-04 20:45 | 51.07528 | -93.79311 | 33554 ft | 428 kts | 281° |
| 2026-05-04 20:45 | 51.08554 | -93.88660 | 33552 ft | 429 kts | 279° |
| 2026-05-04 20:46 | 51.09534 | -93.98042 | 33555 ft | 430 kts | 279° |
| 2026-05-04 20:46 | 51.10522 | -94.07418 | 33575 ft | 430 kts | 280° |
| 2026-05-04 20:47 | 51.11516 | -94.16735 | 33599 ft | 429 kts | 279° |
| 2026-05-04 20:47 | 51.12502 | -94.26112 | 33619 ft | 429 kts | 279° |
| 2026-05-04 20:48 | 51.13478 | -94.35518 | 33639 ft | 430 kts | 279° |
| 2026-05-04 20:48 | 51.14450 | -94.44916 | 33650 ft | 430 kts | 279° |
| 2026-05-04 20:49 | 51.15414 | -94.54325 | 33653 ft | 430 kts | 279° |
| 2026-05-04 20:49 | 51.16362 | -94.63683 | 33663 ft | 430 kts | 279° |
| 2026-05-04 20:50 | 51.16513 | -94.68432 | 33645 ft | 431 kts | 264° |
| 2026-05-04 20:50 | 51.15777 | -94.73061 | 33575 ft | 433 kts | 248° |
| 2026-05-04 20:50 | 51.14231 | -94.77112 | 33309 ft | 427 kts | 233° |
| 2026-05-04 20:50 | 51.12306 | -94.80692 | 32777 ft | 424 kts | 231° |
| 2026-05-04 20:51 | 51.10347 | -94.84193 | 32241 ft | 422 kts | 231° |
| 2026-05-04 20:51 | 51.08401 | -94.87670 | 31796 ft | 417 kts | 230° |
| 2026-05-04 20:51 | 51.06478 | -94.91098 | 31344 ft | 413 kts | 230° |
| 2026-05-04 20:51 | 51.04578 | -94.94500 | 30904 ft | 409 kts | 231° |
| 2026-05-04 20:52 | 51.02690 | -94.97881 | 30452 ft | 406 kts | 231° |
| 2026-05-04 20:52 | 51.00827 | -95.01217 | 30030 ft | 402 kts | 230° |
| 2026-05-04 20:52 | 50.99009 | -95.04483 | 29552 ft | 398 kts | 230° |
| 2026-05-04 20:52 | 50.97179 | -95.07772 | 29011 ft | 395 kts | 231° |
| 2026-05-04 20:53 | 50.95376 | -95.11037 | 28442 ft | 392 kts | 231° |
| 2026-05-04 20:53 | 50.93586 | -95.14282 | 27881 ft | 390 kts | 231° |
| 2026-05-04 20:53 | 50.91822 | -95.17538 | 27319 ft | 388 kts | 232° |
| 2026-05-04 20:53 | 50.90082 | -95.20774 | 26779 ft | 386 kts | 231° |
| 2026-05-04 20:54 | 50.88368 | -95.24040 | 26244 ft | 384 kts | 231° |
| 2026-05-04 20:54 | 50.86678 | -95.27308 | 25731 ft | 383 kts | 231° |
| 2026-05-04 20:54 | 50.85016 | -95.30572 | 25222 ft | 381 kts | 231° |
| 2026-05-04 20:54 | 50.83370 | -95.33855 | 24714 ft | 380 kts | 231° |
| 2026-05-04 20:55 | 50.81740 | -95.37148 | 24210 ft | 379 kts | 231° |
| 2026-05-04 20:55 | 50.80133 | -95.40454 | 23733 ft | 378 kts | 231° |
| 2026-05-04 20:55 | 50.78562 | -95.43718 | 23550 ft | 368 kts | 231° |
| 2026-05-04 20:55 | 50.77068 | -95.46865 | 23442 ft | 356 kts | 231° |
| 2026-05-04 20:56 | 50.75598 | -95.49950 | 23313 ft | 345 kts | 231° |
| 2026-05-04 20:56 | 50.74183 | -95.52949 | 23040 ft | 338 kts | 232° |
| 2026-05-04 20:56 | 50.72779 | -95.55881 | 22713 ft | 332 kts | 232° |
| 2026-05-04 20:56 | 50.71392 | -95.58771 | 22308 ft | 329 kts | 232° |
| 2026-05-04 20:57 | 50.70008 | -95.61619 | 21975 ft | 324 kts | 231° |
| 2026-05-04 20:57 | 50.68630 | -95.64406 | 21617 ft | 320 kts | 231° |
| 2026-05-04 20:57 | 50.67262 | -95.67147 | 21244 ft | 317 kts | 231° |
| 2026-05-04 20:57 | 50.66354 | -95.68951 | 21008 ft | 315 kts | 231° |
| 2026-05-04 20:58 | 50.64994 | -95.71632 | 20648 ft | 312 kts | 231° |
| 2026-05-04 20:58 | 50.63637 | -95.74285 | 20263 ft | 309 kts | 231° |
| 2026-05-04 20:58 | 50.62291 | -95.76898 | 19898 ft | 306 kts | 232° |
| 2026-05-04 20:58 | 50.60939 | -95.79485 | 19558 ft | 304 kts | 231° |
| 2026-05-04 20:59 | 50.59599 | -95.82033 | 19205 ft | 301 kts | 231° |
| 2026-05-04 20:59 | 50.58261 | -95.84547 | 18861 ft | 298 kts | 230° |
| 2026-05-04 20:59 | 50.56924 | -95.87037 | 18515 ft | 296 kts | 231° |
| 2026-05-04 20:59 | 50.55599 | -95.89496 | 18156 ft | 293 kts | 232° |
| 2026-05-04 21:00 | 50.55321 | -95.90003 | 18084 ft | 293 kts | 233° |
| 2026-05-04 21:00 | 50.55126 | -95.90357 | 18032 ft | 292 kts | 229° |
| 2026-05-04 21:00 | 50.53802 | -95.92703 | 17639 ft | 290 kts | 232° |
| 2026-05-04 21:00 | 50.52487 | -95.95091 | 17250 ft | 288 kts | 231° |
| 2026-05-04 21:01 | 50.51124 | -95.97391 | 16883 ft | 287 kts | 228° |
| 2026-05-04 21:01 | 50.49696 | -95.99580 | 16623 ft | 287 kts | 227° |
| 2026-05-04 21:01 | 50.48248 | -96.01738 | 16347 ft | 286 kts | 227° |
| 2026-05-04 21:01 | 50.46807 | -96.03865 | 16066 ft | 284 kts | 227° |
| 2026-05-04 21:02 | 50.45365 | -96.05989 | 15801 ft | 284 kts | 228° |
| 2026-05-04 21:02 | 50.43929 | -96.08109 | 15536 ft | 283 kts | 229° |
| 2026-05-04 21:02 | 50.42501 | -96.10222 | 15272 ft | 282 kts | 227° |
| 2026-05-04 21:02 | 50.41079 | -96.12332 | 15026 ft | 281 kts | 228° |
| 2026-05-04 21:03 | 50.39663 | -96.14432 | 14761 ft | 280 kts | 228° |
| 2026-05-04 21:03 | 50.38252 | -96.16523 | 14506 ft | 279 kts | 228° |
| 2026-05-04 21:03 | 50.36845 | -96.18607 | 14247 ft | 278 kts | 229° |
| 2026-05-04 21:03 | 50.35445 | -96.20678 | 13997 ft | 276 kts | 228° |
| 2026-05-04 21:04 | 50.34052 | -96.22741 | 13752 ft | 276 kts | 228° |
| 2026-05-04 21:04 | 50.32660 | -96.24797 | 13494 ft | 275 kts | 228° |
| 2026-05-04 21:04 | 50.31271 | -96.26850 | 13202 ft | 274 kts | 227° |
| 2026-05-04 21:04 | 50.29890 | -96.28895 | 12958 ft | 273 kts | 229° |
| 2026-05-04 21:05 | 50.28514 | -96.30934 | 12663 ft | 272 kts | 229° |
| 2026-05-04 21:05 | 50.27142 | -96.32966 | 12385 ft | 271 kts | 228° |
| 2026-05-04 21:05 | 50.25773 | -96.34989 | 12119 ft | 270 kts | 229° |
| 2026-05-04 21:05 | 50.24405 | -96.37001 | 11840 ft | 270 kts | 229° |
| 2026-05-04 21:06 | 50.23057 | -96.38979 | 11746 ft | 269 kts | 229° |
| 2026-05-04 21:06 | 50.21693 | -96.40983 | 11749 ft | 269 kts | 229° |
| 2026-05-04 21:06 | 50.20327 | -96.42992 | 11744 ft | 269 kts | 228° |
| 2026-05-04 21:06 | 50.18961 | -96.44995 | 11737 ft | 269 kts | 228° |
| 2026-05-04 21:07 | 50.17596 | -96.46991 | 11739 ft | 269 kts | 228° |
| 2026-05-04 21:07 | 50.16233 | -96.48986 | 11742 ft | 269 kts | 228° |
| 2026-05-04 21:07 | 50.14868 | -96.50982 | 11736 ft | 269 kts | 228° |
| 2026-05-04 21:07 | 50.13504 | -96.52977 | 11736 ft | 269 kts | 228° |
| 2026-05-04 21:08 | 50.12142 | -96.54971 | 11737 ft | 269 kts | 228° |
| 2026-05-04 21:08 | 50.10774 | -96.56976 | 11455 ft | 270 kts | 228° |
| 2026-05-04 21:08 | 50.09414 | -96.58965 | 11124 ft | 268 kts | 228° |
| 2026-05-04 21:08 | 50.08055 | -96.60945 | 10789 ft | 267 kts | 228° |
| 2026-05-04 21:09 | 50.06695 | -96.62922 | 10448 ft | 267 kts | 228° |
| 2026-05-04 21:09 | 50.05343 | -96.64884 | 10250 ft | 262 kts | 228° |
| 2026-05-04 21:09 | 50.04007 | -96.66827 | 10168 ft | 264 kts | 228° |
| 2026-05-04 21:09 | 50.02663 | -96.68781 | 10058 ft | 264 kts | 228° |
| 2026-05-04 21:10 | 50.01330 | -96.70713 | 9808 ft | 267 kts | 227° |
| 2026-05-04 21:10 | 49.99956 | -96.72704 | 9286 ft | 272 kts | 228° |
| 2026-05-04 21:10 | 49.98569 | -96.74714 | 8842 ft | 274 kts | 228° |
| 2026-05-04 21:10 | 49.97173 | -96.76739 | 8399 ft | 275 kts | 228° |
| 2026-05-04 21:11 | 49.95768 | -96.78774 | 7945 ft | 277 kts | 228° |
| 2026-05-04 21:11 | 49.94353 | -96.80820 | 7507 ft | 279 kts | 228° |
| 2026-05-04 21:11 | 49.92929 | -96.82876 | 7041 ft | 281 kts | 228° |
| 2026-05-04 21:11 | 49.91494 | -96.84946 | 6606 ft | 282 kts | 229° |
| 2026-05-04 21:12 | 49.90056 | -96.87022 | 6158 ft | 281 kts | 228° |
| 2026-05-04 21:12 | 49.88636 | -96.89063 | 5694 ft | 275 kts | 228° |
| 2026-05-04 21:12 | 49.87273 | -96.91005 | 5597 ft | 258 kts | 229° |
| 2026-05-04 21:12 | 49.85977 | -96.92855 | 5532 ft | 248 kts | 229° |
| 2026-05-04 21:13 | 49.84742 | -96.94626 | 5468 ft | 235 kts | 229° |
| 2026-05-04 21:13 | 49.83555 | -96.96329 | 5339 ft | 231 kts | 229° |
| 2026-05-04 21:13 | 49.82459 | -96.98122 | 5161 ft | 228 kts | 236° |
| 2026-05-04 21:13 | 49.81414 | -96.99977 | 4802 ft | 228 kts | 236° |
| 2026-05-04 21:14 | 49.80370 | -97.01819 | 4490 ft | 226 kts | 236° |
| 2026-05-04 21:14 | 49.79352 | -97.03612 | 4207 ft | 222 kts | 237° |
| 2026-05-04 21:14 | 49.78688 | -97.05634 | 3932 ft | 204 kts | 268° |
| 2026-05-04 21:14 | 49.78835 | -97.07672 | 3774 ft | 181 kts | 297° |
| 2026-05-04 21:15 | 49.79526 | -97.09165 | 3563 ft | 165 kts | 320° |
| 2026-05-04 21:15 | 49.80354 | -97.10287 | 3337 ft | 152 kts | 320° |
| 2026-05-04 21:15 | 49.81119 | -97.11326 | 3139 ft | 143 kts | 320° |
| 2026-05-04 21:15 | 49.81848 | -97.12318 | 2934 ft | 137 kts | 320° |
| 2026-05-04 21:16 | 49.82570 | -97.13301 | 2746 ft | 138 kts | 320° |
| 2026-05-04 21:16 | 49.83288 | -97.14279 | 2551 ft | 139 kts | 320° |
| 2026-05-04 21:16 | 49.84012 | -97.15265 | 2360 ft | 138 kts | 320° |
| 2026-05-04 21:16 | 49.84731 | -97.16245 | 2168 ft | 135 kts | 320° |
| 2026-05-04 21:17 | 49.85416 | -97.17177 | 1954 ft | 129 kts | 321° |
| 2026-05-04 21:17 | 49.86084 | -97.18088 | 1744 ft | 128 kts | 320° |
| 2026-05-04 21:17 | 49.86750 | -97.19003 | 1544 ft | 129 kts | 321° |
| 2026-05-04 21:17 | 49.87434 | -97.19935 | 1390 ft | 133 kts | 320° |
| 2026-05-04 21:18 | 49.88117 | -97.20880 | 1241 ft | 131 kts | 320° |
| 2026-05-04 21:18 | 49.88792 | -97.21803 | 1048 ft | 129 kts | 319° |
| 2026-05-04 21:18 | 49.89461 | -97.22711 | 839 ft | 127 kts | 319° |
| 2026-05-04 21:18 | 49.90079 | -97.23563 | 787 ft | 93 kts | 319° |
| 2026-05-04 21:19 | 49.90417 | -97.24019 | 784 ft | 42 kts | 319° |
| 2026-05-04 21:19 | 49.90566 | -97.24222 | 787 ft | 22 kts | 318° |
| 2026-05-04 21:19 | 49.90667 | -97.24354 | 788 ft | 12 kts | 329° |
| 2026-05-04 21:19 | 49.90714 | -97.24340 | 787 ft | 6 kts | 39° |
| 2026-05-04 21:20 | 49.90734 | -97.24290 | 788 ft | 5 kts | 69° |
| 2026-05-04 21:20 | 49.90748 | -97.24204 | 789 ft | 10 kts | 78° |
| 2026-05-04 21:20 | 49.90760 | -97.24117 | 790 ft | 7 kts | 78° |
| 2026-05-04 21:20 | 49.90771 | -97.24034 | 789 ft | 12 kts | 78° |
| 2026-05-04 21:21 | 49.90791 | -97.23882 | 786 ft | 15 kts | 78° |
| 2026-05-04 21:21 | 49.90812 | -97.23724 | 784 ft | 15 kts | 79° |
| 2026-05-04 21:21 | 49.90832 | -97.23566 | 781 ft | 15 kts | 79° |
| 2026-05-04 21:21 | 49.90850 | -97.23421 | 782 ft | 11 kts | 79° |
| 2026-05-04 21:22 | 49.90832 | -97.23341 | 781 ft | 8 kts | 135° |
| 2026-05-04 21:22 | 49.90782 | -97.23298 | 780 ft | 8 kts | 155° |
| 2026-05-04 21:22 | 49.90735 | -97.23264 | 781 ft | 7 kts | 155° |
| 2026-05-04 21:22 | 49.90701 | -97.23233 | 782 ft | 4 kts | 141° |
| 2026-05-04 21:23 | 49.90684 | -97.23186 | 782 ft | 7 kts | 105° |
| 2026-05-04 21:23 | 49.90690 | -97.23094 | 783 ft | 9 kts | 78° |
| 2026-05-04 21:23 | 49.90702 | -97.23003 | 782 ft | 8 kts | 78° |
| 2026-05-04 21:23 | 49.90713 | -97.22921 | 782 ft | 7 kts | 79° |
| 2026-05-04 21:24 | 49.90721 | -97.22850 | 782 ft | 6 kts | 79° |
| 2026-05-04 21:24 | 49.90728 | -97.22799 | 782 ft | 4 kts | 78° |
| 2026-05-04 21:24 | 49.90734 | -97.22755 | 782 ft | 5 kts | 78° |
| 2026-05-04 21:24 | 49.90732 | -97.22715 | 783 ft | 4 kts | 114° |
| 2026-05-04 21:25 | 49.90709 | -97.22696 | 787 ft | 3 kts | 161° |
| 2026-05-04 21:25 | 49.90693 | -97.22686 | 783 ft | 1 kts | 156° |
| 2026-05-04 21:25 | 49.90688 | -97.22682 | 787 ft | 1 kts | 153° |
| 2026-05-04 21:25 | 49.90687 | -97.22681 | 787 ft | 0 kts | 153° |
| 2026-05-04 21:26 | 49.90685 | -97.22680 | 786 ft | 1 kts | 154° |
| 2026-05-04 21:26 | 49.90678 | -97.22675 | 784 ft | 1 kts | 155° |
| 2026-05-04 21:26 | 49.90676 | -97.22674 | 784 ft | 0 kts | 156° |
| 2026-05-04 21:26 | 49.90670 | -97.22670 | 784 ft | 2 kts | 159° |
| 2026-05-04 21:27 | 49.90666 | -97.22668 | 784 ft | 0 kts | 160° |
| 2026-05-04 21:27 | 49.90662 | -97.22666 | 784 ft | 0 kts | 160° |
| 2026-05-04 21:27 | 49.90662 | -97.22665 | 785 ft | 0 kts | 160° |